createdAt,value
2023-02-04T00:01:39.114Z,2.63
2023-02-04T00:04:06.172Z,2.65
2023-02-04T00:06:33.461Z,2.65
2023-02-04T00:09:00.709Z,2.67
2023-02-04T00:11:27.814Z,2.68
2023-02-04T00:13:54.858Z,2.70
2023-02-04T00:16:21.932Z,2.70
2023-02-04T00:18:49.352Z,2.74
2023-02-04T00:21:16.377Z,2.75
2023-02-04T00:23:43.388Z,2.76
2023-02-04T00:26:10.450Z,2.78
2023-02-04T00:28:37.524Z,2.80
2023-02-04T00:31:05.083Z,2.83
2023-02-04T00:33:32.132Z,2.87
2023-02-04T00:35:59.229Z,2.88
2023-02-04T00:38:26.283Z,2.90
2023-02-04T00:40:53.312Z,2.88
2023-02-04T00:43:20.344Z,2.80
2023-02-04T00:45:48.247Z,2.71
2023-02-04T00:48:15.316Z,2.44
2023-02-04T00:50:42.330Z,2.23
2023-02-04T00:53:09.928Z,2.08
2023-02-04T00:55:36.988Z,1.96
2023-02-04T00:58:04.186Z,1.82
2023-02-04T01:00:31.660Z,1.71
2023-02-04T01:02:59.468Z,1.66
2023-02-04T01:05:26.810Z,1.62
2023-02-04T01:07:54.398Z,1.59
2023-02-04T01:10:21.618Z,1.50
2023-02-04T01:12:49.042Z,1.41
2023-02-04T01:15:16.868Z,1.43
2023-02-04T01:17:44.135Z,1.37
2023-02-04T01:20:11.731Z,1.28
2023-02-04T01:22:38.942Z,1.22
2023-02-04T01:25:06.680Z,1.08
2023-02-04T01:27:33.696Z,1.04
2023-02-04T01:30:00.782Z,0.99
2023-02-04T01:32:27.921Z,0.95
2023-02-04T01:34:57.157Z,0.94
2023-02-04T01:37:24.461Z,0.98
2023-02-04T01:42:19.163Z,1.04
2023-02-04T01:44:47.555Z,1.10
2023-02-04T01:47:14.752Z,1.10
2023-02-04T01:49:42.125Z,1.15
2023-02-04T01:52:10.774Z,1.15
2023-02-04T01:54:38.023Z,1.16
2023-02-04T01:57:06.931Z,1.14
2023-02-04T01:59:34.257Z,1.15
2023-02-04T02:02:01.618Z,1.16
2023-02-04T02:04:30.966Z,1.19
2023-02-04T02:07:01.853Z,1.19
2023-02-04T02:09:29.501Z,1.12
2023-02-04T02:11:56.956Z,1.09
2023-02-04T02:14:24.129Z,1.02
2023-02-04T02:16:51.254Z,1.00
2023-02-04T02:19:26.338Z,0.96
2023-02-04T02:21:59.188Z,0.92
2023-02-04T02:24:28.423Z,0.86
2023-02-04T02:26:57.350Z,0.84
2023-02-04T02:29:24.859Z,0.79
2023-02-04T02:31:52.643Z,0.80
2023-02-04T02:34:19.784Z,0.77
2023-02-04T02:36:46.939Z,0.78
2023-02-04T02:39:14.014Z,0.77
2023-02-04T02:41:41.115Z,0.78
2023-02-04T02:44:09.622Z,0.77
2023-02-04T02:46:36.769Z,0.77
2023-02-04T02:49:03.998Z,0.72
2023-02-04T02:51:31.302Z,0.74
2023-02-04T02:53:58.527Z,0.78
2023-02-04T02:56:25.548Z,0.80
2023-02-04T02:58:53.144Z,0.77
2023-02-04T03:01:20.261Z,0.75
2023-02-04T03:03:51.792Z,0.74
2023-02-04T03:06:23.174Z,0.77
2023-02-04T03:08:52.583Z,0.78
2023-02-04T03:11:19.637Z,0.80
2023-02-04T03:13:46.860Z,0.78
2023-02-04T03:16:14.026Z,0.76
2023-02-04T03:18:41.217Z,0.79
2023-02-04T03:21:08.392Z,0.80
2023-02-04T03:23:36.251Z,0.77
2023-02-04T03:26:04.512Z,0.76
2023-02-04T03:28:31.846Z,0.77
2023-02-04T03:30:59.381Z,0.78
2023-02-04T03:33:31.391Z,0.78
2023-02-04T03:35:59.076Z,0.80
2023-02-04T03:38:26.311Z,0.75
2023-02-04T03:40:53.427Z,0.74
2023-02-04T03:43:20.516Z,0.72
2023-02-04T03:45:47.719Z,0.67
2023-02-04T03:48:14.814Z,0.64
2023-02-04T03:50:42.310Z,0.62
2023-02-04T03:53:09.729Z,0.62
2023-02-04T03:55:37.003Z,0.63
2023-02-04T03:58:04.532Z,0.64
2023-02-04T04:00:32.483Z,0.66
2023-02-04T04:03:00.131Z,0.64
2023-02-04T04:05:28.579Z,0.65
2023-02-04T04:07:55.700Z,0.60
2023-02-04T04:10:22.816Z,0.58
2023-02-04T04:12:49.887Z,0.59
2023-02-04T04:15:17.094Z,0.53
2023-02-04T04:17:44.147Z,0.44
2023-02-04T04:20:11.497Z,0.41
2023-02-04T04:22:38.701Z,0.40
2023-02-04T04:25:06.518Z,0.38
2023-02-04T04:27:33.584Z,0.39
2023-02-04T04:30:01.464Z,0.40
2023-02-04T04:32:28.544Z,0.42
2023-02-04T04:34:55.661Z,0.43
2023-02-04T04:37:22.808Z,0.44
2023-02-04T04:39:49.853Z,0.38
2023-02-04T04:42:17.118Z,0.37
2023-02-04T04:44:44.310Z,0.38
2023-02-04T04:47:11.376Z,0.35
2023-02-04T04:49:38.605Z,0.33
2023-02-04T04:52:05.681Z,0.30
2023-02-04T04:54:32.724Z,0.27
2023-02-04T04:56:59.764Z,0.28
2023-02-04T04:59:26.791Z,0.26
2023-02-04T05:01:53.844Z,0.25
2023-02-04T05:04:22.704Z,0.24
2023-02-04T05:06:49.768Z,0.22
2023-02-04T05:09:17.410Z,0.22
2023-02-04T05:11:44.525Z,0.17
2023-02-04T05:14:11.575Z,0.13
2023-02-04T05:16:38.683Z,0.07
2023-02-04T05:19:05.732Z,0.12
2023-02-04T05:21:32.799Z,0.10
2023-02-04T05:23:59.856Z,0.08
2023-02-04T05:26:30.607Z,0.08
2023-02-04T05:29:00.442Z,0.04
2023-02-04T05:31:27.954Z,0.05
2023-02-04T05:33:55.039Z,0.03
2023-02-04T05:36:22.120Z,0.02
2023-02-04T05:38:49.163Z,-0.01
2023-02-04T05:41:16.253Z,-0.04
2023-02-04T05:43:43.499Z,-0.04
2023-02-04T05:46:10.605Z,-0.04
2023-02-04T05:48:37.648Z,-0.04
2023-02-04T05:51:05.016Z,-0.04
2023-02-04T05:53:32.154Z,-0.05
2023-02-04T05:55:59.190Z,-0.06
2023-02-04T05:58:33.138Z,-0.04
2023-02-04T06:01:04.007Z,-0.04
2023-02-04T06:03:31.245Z,-0.04
2023-02-04T06:05:58.659Z,-0.04
2023-02-04T06:08:25.693Z,-0.06
2023-02-04T06:10:52.801Z,-0.07
2023-02-04T06:13:20.412Z,-0.07
2023-02-04T06:15:47.455Z,-0.06
2023-02-04T06:18:14.582Z,-0.07
2023-02-04T06:20:42.057Z,-0.10
2023-02-04T06:23:09.155Z,-0.11
2023-02-04T06:25:36.255Z,-0.09
2023-02-04T06:28:03.372Z,-0.09
2023-02-04T06:30:30.837Z,-0.09
2023-02-04T06:32:58.241Z,-0.09
2023-02-04T06:35:25.276Z,-0.10
2023-02-04T06:37:52.306Z,-0.08
2023-02-04T06:40:19.549Z,-0.11
2023-02-04T06:42:46.705Z,-0.13
2023-02-04T06:45:13.773Z,-0.16
2023-02-04T06:47:40.840Z,-0.18
2023-02-04T06:50:08.385Z,-0.21
2023-02-04T06:52:35.432Z,-0.25
2023-02-04T06:55:02.521Z,-0.30
2023-02-04T06:57:29.581Z,-0.30
2023-02-04T06:59:56.689Z,-0.32
2023-02-04T07:02:23.792Z,-0.32
2023-02-04T07:04:50.837Z,-0.32
2023-02-04T07:07:17.882Z,-0.32
2023-02-04T07:09:44.994Z,-0.29
2023-02-04T07:12:12.026Z,-0.26
2023-02-04T07:14:39.230Z,-0.25
2023-02-04T07:17:06.246Z,-0.23
2023-02-04T07:19:33.788Z,-0.26
2023-02-04T07:22:00.813Z,-0.30
2023-02-04T07:24:27.910Z,-0.31
2023-02-04T07:26:55.460Z,-0.30
2023-02-04T07:29:26.029Z,-0.32
2023-02-04T07:31:53.629Z,-0.31
2023-02-04T07:34:21.028Z,-0.29
2023-02-04T07:36:48.225Z,-0.30
2023-02-04T07:39:15.494Z,-0.25
2023-02-04T07:41:42.541Z,-0.28
2023-02-04T07:44:09.636Z,-0.28
2023-02-04T07:46:36.719Z,-0.25
2023-02-04T07:49:03.907Z,-0.22
2023-02-04T07:51:31.131Z,-0.20
2023-02-04T07:53:58.223Z,-0.16
2023-02-04T07:56:25.278Z,-0.16
2023-02-04T07:58:52.419Z,-0.16
2023-02-04T08:01:19.630Z,-0.17
2023-02-04T08:03:46.710Z,-0.12
2023-02-04T08:06:13.758Z,-0.05
2023-02-04T08:08:40.905Z,-0.03
2023-02-04T08:11:08.091Z,-0.06
2023-02-04T08:13:35.249Z,-0.07
2023-02-04T08:16:02.352Z,-0.06
2023-02-04T08:18:30.189Z,-0.06
2023-02-04T08:20:57.330Z,-0.08
2023-02-04T08:23:24.592Z,-0.07
2023-02-04T08:25:51.653Z,-0.06
2023-02-04T08:28:18.802Z,-0.09
2023-02-04T08:30:45.958Z,-0.08
2023-02-04T08:33:13.166Z,-0.08
2023-02-04T08:35:40.192Z,-0.11
2023-02-04T08:38:07.247Z,-0.09
2023-02-04T08:40:34.547Z,-0.07
2023-02-04T08:43:01.676Z,-0.08
2023-02-04T08:45:28.812Z,-0.05
2023-02-04T08:47:55.850Z,0.00
2023-02-04T08:50:41.476Z,0.04
2023-02-04T08:53:08.549Z,0.07
2023-02-04T08:55:35.560Z,0.13
2023-02-04T08:58:03.570Z,0.19
2023-02-04T09:00:31.271Z,0.20
2023-02-04T09:02:58.538Z,0.16
2023-02-04T09:05:25.668Z,0.13
2023-02-04T09:07:52.687Z,0.15
2023-02-04T09:10:19.751Z,0.19
2023-02-04T09:12:46.940Z,0.27
2023-02-04T09:15:14.108Z,0.33
2023-02-04T09:17:43.778Z,0.39
2023-02-04T09:20:11.660Z,0.43
2023-02-04T09:22:38.929Z,0.43
2023-02-04T09:25:06.364Z,0.47
2023-02-04T09:27:33.417Z,0.45
2023-02-04T09:30:00.531Z,0.42
2023-02-04T09:32:27.658Z,0.37
2023-02-04T09:34:54.664Z,0.37
2023-02-04T09:37:21.709Z,0.38
2023-02-04T09:39:48.843Z,0.43
2023-02-04T09:42:16.253Z,0.45
2023-02-04T09:44:45.298Z,0.48
2023-02-04T09:47:15.531Z,0.53
2023-02-04T09:49:46.834Z,0.59
2023-02-04T09:52:15.522Z,0.62
2023-02-04T09:54:42.649Z,0.65
2023-02-04T09:57:14.680Z,0.74
2023-02-04T09:59:43.021Z,0.80
2023-02-04T10:02:25.767Z,0.88
2023-02-04T10:04:57.568Z,0.98
2023-02-04T10:07:26.696Z,1.04
2023-02-04T10:09:54.348Z,1.18
2023-02-04T10:12:21.746Z,1.37
2023-02-04T10:14:49.224Z,1.57
2023-02-04T10:17:20.408Z,1.67
2023-02-04T10:19:47.752Z,1.61
2023-02-04T10:22:20.142Z,1.74
2023-02-04T10:24:47.256Z,1.78
2023-02-04T10:27:17.493Z,1.83
2023-02-04T10:29:58.506Z,1.76
2023-02-04T10:32:28.122Z,1.73
2023-02-04T10:35:00.205Z,1.85
2023-02-04T10:37:27.686Z,2.03
2023-02-04T10:39:55.007Z,2.06
2023-02-04T10:42:26.861Z,2.05
2023-02-04T10:44:54.050Z,1.98
2023-02-04T10:47:26.063Z,1.89
2023-02-04T10:50:02.919Z,1.79
2023-02-04T10:52:41.350Z,1.72
2023-02-04T10:55:14.770Z,1.71
2023-02-04T10:57:44.390Z,1.71
2023-02-04T11:00:19.773Z,1.71
2023-02-04T11:02:57.979Z,1.78
2023-02-04T11:05:30.802Z,1.83
2023-02-04T11:08:21.121Z,1.89
2023-02-04T11:10:59.951Z,1.93
2023-02-04T11:13:41.358Z,1.98
2023-02-04T11:16:17.822Z,2.04
2023-02-04T11:18:50.663Z,2.10
2023-02-04T11:21:28.690Z,2.12
2023-02-04T11:24:11.006Z,2.14
2023-02-04T11:26:45.040Z,2.13
2023-02-04T11:29:34.722Z,2.16
2023-02-04T11:32:26.388Z,2.13
2023-02-04T11:34:55.766Z,2.15
2023-02-04T11:37:36.918Z,2.16
2023-02-04T11:40:32.691Z,2.16
2023-02-04T11:43:09.649Z,2.19
2023-02-04T11:45:37.770Z,2.17
2023-02-04T11:48:20.628Z,2.16
2023-02-04T11:51:02.214Z,2.17
2023-02-04T11:53:33.236Z,2.20
2023-02-04T11:56:00.944Z,2.36
2023-02-04T11:58:31.699Z,2.51
2023-02-04T12:00:59.294Z,2.61
2023-02-04T12:03:32.544Z,2.61
2023-02-04T12:06:00.027Z,2.62
2023-02-04T12:08:32.349Z,2.56
2023-02-04T12:11:04.128Z,2.55
2023-02-04T12:13:31.986Z,2.52
2023-02-04T12:16:04.626Z,2.47
2023-02-04T12:18:33.422Z,2.47
2023-02-04T12:21:01.483Z,2.45
2023-02-04T12:23:29.782Z,2.46
2023-02-04T12:25:57.241Z,2.45
2023-02-04T12:28:24.782Z,2.46
2023-02-04T12:30:51.857Z,2.41
2023-02-04T12:33:19.064Z,2.39
2023-02-04T12:35:46.490Z,2.36
2023-02-04T12:38:13.540Z,2.34
2023-02-04T12:40:40.614Z,2.32
2023-02-04T12:43:07.666Z,2.25
2023-02-04T12:45:34.968Z,2.30
2023-02-04T12:48:02.259Z,2.32
2023-02-04T12:50:29.506Z,2.39
2023-02-04T12:52:58.748Z,2.52
2023-02-04T12:55:27.809Z,2.65
2023-02-04T12:57:56.147Z,2.74
2023-02-04T13:00:24.046Z,2.72
2023-02-04T13:02:52.761Z,2.76
2023-02-04T13:05:19.862Z,2.74
2023-02-04T13:07:46.936Z,2.71
2023-02-04T13:10:14.193Z,2.65
2023-02-04T13:12:41.473Z,2.62
2023-02-04T13:15:09.302Z,2.60
2023-02-04T13:17:36.480Z,2.57
2023-02-04T13:20:04.189Z,2.60
2023-02-04T13:22:31.248Z,2.65
2023-02-04T13:24:58.320Z,2.65
2023-02-04T13:27:25.504Z,2.61
2023-02-04T13:29:52.552Z,2.59
2023-02-04T13:32:19.573Z,2.54
2023-02-04T13:34:46.636Z,2.48
2023-02-04T13:37:13.654Z,2.41
2023-02-04T13:39:40.759Z,2.37
2023-02-04T13:42:07.844Z,2.33
2023-02-04T13:44:34.932Z,2.32
2023-02-04T13:47:01.998Z,2.28
2023-02-04T13:49:29.061Z,2.29
2023-02-04T13:51:56.253Z,2.34
2023-02-04T13:54:23.355Z,2.41
2023-02-04T13:56:50.534Z,2.48
2023-02-04T13:59:18.319Z,2.55
2023-02-04T14:01:46.009Z,2.61
2023-02-04T14:04:13.066Z,2.62
2023-02-04T14:06:43.559Z,2.61
2023-02-04T14:09:12.137Z,2.59
2023-02-04T14:11:39.723Z,2.54
2023-02-04T14:14:07.331Z,2.55
2023-02-04T14:16:36.350Z,2.50
2023-02-04T14:19:05.677Z,2.48
2023-02-04T14:21:33.103Z,2.48
2023-02-04T14:24:01.006Z,2.48
2023-02-04T14:26:28.050Z,2.44
2023-02-04T14:28:55.140Z,2.45
2023-02-04T14:31:22.506Z,2.49
2023-02-04T14:33:50.463Z,2.52
2023-02-04T14:36:17.681Z,2.52
2023-02-04T14:38:44.868Z,2.51
2023-02-04T14:41:16.307Z,2.52
2023-02-04T14:43:43.582Z,2.50
2023-02-04T14:46:10.726Z,2.48
2023-02-04T14:48:37.853Z,2.46
2023-02-04T14:51:05.684Z,2.46
2023-02-04T14:53:32.767Z,2.40
2023-02-04T14:55:59.867Z,2.31
2023-02-04T14:58:28.027Z,2.30
2023-02-04T15:00:55.574Z,2.23
2023-02-04T15:03:23.022Z,2.18
2023-02-04T15:05:50.060Z,2.15
2023-02-04T15:08:17.076Z,2.14
2023-02-04T15:10:44.123Z,2.12
2023-02-04T15:13:11.483Z,2.04
2023-02-04T15:15:38.557Z,2.00
2023-02-04T15:18:05.758Z,1.94
2023-02-04T15:20:33.196Z,1.95
2023-02-04T15:23:00.990Z,1.94
2023-02-04T15:25:28.268Z,1.95
2023-02-04T15:27:55.479Z,1.92
2023-02-04T15:30:22.809Z,1.87
2023-02-04T15:32:49.955Z,1.85
2023-02-04T15:35:16.985Z,1.81
2023-02-04T15:37:43.993Z,1.78
2023-02-04T15:40:11.919Z,1.76
2023-02-04T15:42:39.024Z,1.75
2023-02-04T15:45:06.491Z,1.75
2023-02-04T15:47:33.544Z,1.76
2023-02-04T15:50:00.724Z,1.78
2023-02-04T15:52:29.385Z,1.76
2023-02-04T15:54:56.683Z,1.75
2023-02-04T15:57:23.818Z,1.69
2023-02-04T15:59:51.001Z,1.66
2023-02-04T16:02:18.122Z,1.59
2023-02-04T16:04:45.455Z,1.55
2023-02-04T16:07:12.605Z,1.54
2023-02-04T16:09:39.769Z,1.49
2023-02-04T16:12:06.981Z,1.49
2023-02-04T16:14:34.235Z,1.49
2023-02-04T16:17:05.521Z,1.51
2023-02-04T16:19:32.683Z,1.51
2023-02-04T16:21:59.811Z,1.51
2023-02-04T16:24:27.189Z,1.46
2023-02-04T16:26:54.256Z,1.42
2023-02-04T16:29:21.352Z,1.43
2023-02-04T16:31:48.495Z,1.42
2023-02-04T16:34:15.690Z,1.39
2023-02-04T16:36:42.732Z,1.36
2023-02-04T16:39:10.043Z,1.37
2023-02-04T16:41:37.261Z,1.38
2023-02-04T16:44:04.362Z,1.39
2023-02-04T16:46:33.684Z,1.40
2023-02-04T16:49:01.142Z,1.37
2023-02-04T16:51:28.778Z,1.34
2023-02-04T16:53:55.884Z,1.29
2023-02-04T16:56:22.992Z,1.27
2023-02-04T16:58:50.340Z,1.26
2023-02-04T17:01:17.579Z,1.25
2023-02-04T17:03:44.735Z,1.26
2023-02-04T17:06:16.277Z,1.26
2023-02-04T17:08:43.460Z,1.26
2023-02-04T17:11:28.851Z,1.24
2023-02-04T17:13:57.432Z,1.25
2023-02-04T17:16:24.600Z,1.25
2023-02-04T17:18:51.731Z,1.26
2023-02-04T17:21:18.806Z,1.20
2023-02-04T17:23:45.905Z,1.20
2023-02-04T17:26:13.116Z,1.18
2023-02-04T17:28:40.511Z,1.13
2023-02-04T17:31:07.901Z,1.01
2023-02-04T17:33:35.270Z,0.95
2023-02-04T17:36:02.844Z,0.94
2023-02-04T17:38:30.363Z,0.96
2023-02-04T17:40:57.806Z,0.93
2023-02-04T17:43:24.897Z,0.93
2023-02-04T17:45:52.446Z,0.92
2023-02-04T17:48:19.551Z,0.87
2023-02-04T17:50:46.628Z,0.85
2023-02-04T17:53:13.725Z,0.87
2023-02-04T17:55:40.812Z,0.85
2023-02-04T17:58:26.981Z,0.81
2023-02-04T18:00:58.641Z,0.79
2023-02-04T18:03:28.444Z,0.79
2023-02-04T18:05:56.619Z,0.78
2023-02-04T18:08:26.710Z,0.77
2023-02-04T18:10:55.235Z,0.74
2023-02-04T18:13:24.636Z,0.74
2023-02-04T18:15:57.933Z,0.76
2023-02-04T18:18:42.956Z,0.75
2023-02-04T18:21:23.123Z,0.65
2023-02-04T18:24:08.515Z,0.61
2023-02-04T18:26:39.756Z,0.54
2023-02-04T18:29:31.960Z,0.51
2023-02-04T18:32:22.332Z,0.46
2023-02-04T18:34:53.220Z,0.47
2023-02-04T18:37:30.687Z,0.45
2023-02-04T18:40:16.510Z,0.40
2023-02-04T18:42:45.241Z,0.41
2023-02-04T18:45:28.008Z,0.44
2023-02-04T18:48:21.444Z,0.38
2023-02-04T18:50:49.774Z,0.38
2023-02-04T18:53:28.117Z,0.37
2023-02-04T18:55:58.039Z,0.37
2023-02-04T18:58:41.445Z,0.36
2023-02-04T19:01:11.549Z,0.29
2023-02-04T19:03:56.021Z,0.25
2023-02-04T19:06:40.201Z,0.19
2023-02-04T19:09:10.235Z,0.11
2023-02-04T19:11:38.341Z,0.10
2023-02-04T19:14:22.603Z,0.03
2023-02-04T19:16:52.692Z,-0.04
2023-02-04T19:19:40.192Z,-0.06
2023-02-04T19:22:14.542Z,-0.07
2023-02-04T19:24:41.615Z,-0.05
2023-02-04T19:27:25.144Z,-0.05
2023-02-04T19:29:53.702Z,-0.08
2023-02-04T19:32:24.431Z,-0.10
2023-02-04T19:34:52.781Z,-0.13
2023-02-04T19:37:39.842Z,-0.13
2023-02-04T19:40:37.775Z,-0.18
2023-02-04T19:43:07.738Z,-0.21
2023-02-04T19:45:35.072Z,-0.24
2023-02-04T19:48:02.548Z,-0.26
2023-02-04T19:50:32.695Z,-0.27
2023-02-04T19:53:13.297Z,-0.25
2023-02-04T19:55:58.560Z,-0.20
2023-02-04T19:58:36.669Z,-0.20
2023-02-04T20:01:16.625Z,-0.23
2023-02-04T20:03:44.539Z,-0.24
2023-02-04T20:06:27.426Z,-0.21
2023-02-04T20:09:09.527Z,-0.18
2023-02-04T20:11:58.987Z,-0.24
2023-02-04T20:14:29.414Z,-0.25
2023-02-04T20:17:02.267Z,-0.28
2023-02-04T20:19:35.367Z,-0.30
2023-02-04T20:22:17.328Z,-0.32
2023-02-04T20:24:55.213Z,-0.30
2023-02-04T20:27:25.311Z,-0.28
2023-02-04T20:30:00.392Z,-0.26
2023-02-04T20:32:30.046Z,-0.27
2023-02-04T20:35:09.303Z,-0.25
2023-02-04T20:37:36.517Z,-0.27
2023-02-04T20:40:37.485Z,-0.28
2023-02-04T20:43:20.585Z,-0.29
2023-02-04T20:45:54.069Z,-0.29
2023-02-04T20:48:37.451Z,-0.25
2023-02-04T20:51:05.438Z,-0.23
2023-02-04T20:53:39.202Z,-0.27
2023-02-04T20:56:28.582Z,-0.27
2023-02-04T20:59:15.949Z,-0.25
2023-02-04T21:01:48.716Z,-0.20
2023-02-04T21:04:20.284Z,-0.20
2023-02-04T21:06:48.622Z,-0.21
2023-02-04T21:09:30.605Z,-0.22
2023-02-04T21:11:58.798Z,-0.24
2023-02-04T21:14:27.005Z,-0.27
2023-02-04T21:16:54.830Z,-0.25
2023-02-04T21:19:23.466Z,-0.28
2023-02-04T21:21:50.591Z,-0.25
2023-02-04T21:24:18.281Z,-0.21
2023-02-04T21:26:45.381Z,-0.21
2023-02-04T21:29:12.506Z,-0.20
2023-02-04T21:31:40.085Z,-0.22
2023-02-04T21:34:07.457Z,-0.22
2023-02-04T21:36:34.788Z,-0.22
2023-02-04T21:39:01.881Z,-0.21
2023-02-04T21:41:29.112Z,-0.21
2023-02-04T21:43:56.131Z,-0.21
2023-02-04T21:46:23.430Z,-0.21
2023-02-04T21:48:50.479Z,-0.22
2023-02-04T21:51:17.560Z,-0.25
2023-02-04T21:53:44.726Z,-0.30
2023-02-04T21:56:11.801Z,-0.29
2023-02-04T21:58:38.871Z,-0.28
2023-02-04T22:01:06.753Z,-0.31
2023-02-04T22:03:33.935Z,-0.32
2023-02-04T22:06:01.161Z,-0.31
2023-02-04T22:08:28.212Z,-0.29
2023-02-04T22:10:55.607Z,-0.26
2023-02-04T22:13:41.306Z,-0.24
2023-02-04T22:16:08.586Z,-0.25
2023-02-04T22:18:35.699Z,-0.28
2023-02-04T22:21:02.785Z,-0.25
2023-02-04T22:23:30.196Z,-0.24
2023-02-04T22:25:57.294Z,-0.21
2023-02-04T22:28:24.373Z,-0.24
2023-02-04T22:30:53.895Z,-0.25
2023-02-04T22:33:21.249Z,-0.32
2023-02-04T22:35:48.537Z,-0.32
2023-02-04T22:38:15.597Z,-0.38
2023-02-04T22:40:42.669Z,-0.40
2023-02-04T22:43:09.706Z,-0.36
2023-02-04T22:45:36.840Z,-0.39
2023-02-04T22:48:03.925Z,-0.39
2023-02-04T22:50:31.001Z,-0.39
2023-02-04T22:52:58.071Z,-0.43
2023-02-04T22:55:25.121Z,-0.52
2023-02-04T22:57:52.187Z,-0.55
2023-02-04T23:00:19.263Z,-0.54
2023-02-04T23:02:46.478Z,-0.58
2023-02-04T23:05:13.533Z,-0.62
2023-02-04T23:07:40.685Z,-0.58
2023-02-04T23:10:08.242Z,-0.58
2023-02-04T23:12:35.369Z,-0.59
2023-02-04T23:15:02.481Z,-0.57
2023-02-04T23:17:29.537Z,-0.59
2023-02-04T23:19:56.681Z,-0.55
2023-02-04T23:22:23.776Z,-0.55
2023-02-04T23:24:50.919Z,-0.52
2023-02-04T23:27:17.978Z,-0.48
2023-02-04T23:29:45.029Z,-0.46
2023-02-04T23:32:12.124Z,-0.52
2023-02-04T23:34:39.176Z,-0.57
2023-02-04T23:37:06.574Z,-0.60
2023-02-04T23:39:33.606Z,-0.63
2023-02-04T23:42:00.855Z,-0.63
2023-02-04T23:44:27.998Z,-0.62
2023-02-04T23:46:55.067Z,-0.64
2023-02-04T23:49:22.118Z,-0.67
2023-02-04T23:51:49.266Z,-0.69
2023-02-04T23:54:16.353Z,-0.77
2023-02-04T23:56:43.472Z,-0.77
2023-02-04T23:59:10.560Z,-0.79
